CheckWX is a tool to help pilots better visualize weather data.  It is not intended as a substitute for an official pre-flight weather briefing.

21:09:37 UTC

KEZZ METAR
Cameron Memorial Airport
Cameron, Missouri, USA
Current

35 mins ago

KEZZ 112035Z AUTO 28008KT 270V340 10SM CLR 32/22 A2996 RMK AO2 T03180221
Observed
Jul-11 @ 20:35 UTC
Wind
  • 280° at 8 KTS
Visibility
10 SM
Flight Rules
VFR
Cloud Levels
  • Clear skies
Temperature
32°C / 90°F
Dewpoint
22°C / 72°F
Humidity
55%
Altimeter
29.96" Hg
Pressure
1014.52 hPa
Previous

55 mins ago

KEZZ 112015Z AUTO 31007KT 10SM CLR 32/22 A2997 RMK AO2 T03170221
Observed
Jul-11 @ 20:15 UTC
Wind
  • 310° at 7 KTS
Visibility
10 SM
Flight Rules
VFR
Cloud Levels
  • Clear skies
Temperature
32°C / 90°F
Dewpoint
22°C / 72°F
Humidity
55%
Altimeter
29.97" Hg
Pressure
1014.92 hPa
Previous

1 hour ago

KEZZ 111955Z AUTO 32008KT 300V360 10SM CLR 32/22 A2997 RMK AO2 T03170220
Observed
Jul-11 @ 19:55 UTC
Wind
  • 320° at 8 KTS
Visibility
10 SM
Flight Rules
VFR
Cloud Levels
  • Clear skies
Temperature
32°C / 90°F
Dewpoint
22°C / 72°F
Humidity
55%
Altimeter
29.97" Hg
Pressure
1014.92 hPa